sensor_id;sensor_type;location;lat;lon;timestamp;temperature;humidity
18894;DHT22;9579;49.488;8.226;2024-02-16T00:00:00;13.30;99.90
18894;DHT22;9579;49.488;8.226;2024-02-16T00:02:48;13.30;99.90
18894;DHT22;9579;49.488;8.226;2024-02-16T00:05:36;13.20;99.90
18894;DHT22;9579;49.488;8.226;2024-02-16T00:08:25;13.30;99.90
18894;DHT22;9579;49.488;8.226;2024-02-16T00:11:13;13.30;99.90
18894;DHT22;9579;49.488;8.226;2024-02-16T00:14:01;13.20;99.90
18894;DHT22;9579;49.488;8.226;2024-02-16T00:16:50;13.20;99.90
18894;DHT22;9579;49.488;8.226;2024-02-16T00:19:37;13.20;99.90
18894;DHT22;9579;49.488;8.226;2024-02-16T00:22:25;14.70;99.90
18894;DHT22;9579;49.488;8.226;2024-02-16T00:25:16;13.30;99.90
18894;DHT22;9579;49.488;8.226;2024-02-16T00:28:04;14.50;99.90
18894;DHT22;9579;49.488;8.226;2024-02-16T00:30:52;13.30;99.90
18894;DHT22;9579;49.488;8.226;2024-02-16T00:33:39;13.50;99.90
18894;DHT22;9579;49.488;8.226;2024-02-16T00:36:27;13.30;99.90
18894;DHT22;9579;49.488;8.226;2024-02-16T00:39:16;13.20;99.90
18894;DHT22;9579;49.488;8.226;2024-02-16T00:42:07;13.60;99.90
18894;DHT22;9579;49.488;8.226;2024-02-16T00:44:55;14.60;99.90
18894;DHT22;9579;49.488;8.226;2024-02-16T00:47:42;12.30;99.90
18894;DHT22;9579;49.488;8.226;2024-02-16T00:50:30;13.00;99.90
18894;DHT22;9579;49.488;8.226;2024-02-16T00:53:18;12.80;99.90
18894;DHT22;9579;49.488;8.226;2024-02-16T00:56:08;13.20;99.90
18894;DHT22;9579;49.488;8.226;2024-02-16T00:58:57;12.80;99.90
18894;DHT22;9579;49.488;8.226;2024-02-16T01:01:45;13.00;99.90
18894;DHT22;9579;49.488;8.226;2024-02-16T01:04:34;12.90;99.90
18894;DHT22;9579;49.488;8.226;2024-02-16T01:07:22;13.00;99.90
18894;DHT22;9579;49.488;8.226;2024-02-16T01:10:10;13.20;99.90
18894;DHT22;9579;49.488;8.226;2024-02-16T01:12:58;13.10;99.90
18894;DHT22;9579;49.488;8.226;2024-02-16T01:15:47;14.10;99.90
18894;DHT22;9579;49.488;8.226;2024-02-16T01:18:36;13.00;99.90
18894;DHT22;9579;49.488;8.226;2024-02-16T01:21:23;13.00;99.90
18894;DHT22;9579;49.488;8.226;2024-02-16T01:24:11;13.00;99.90
18894;DHT22;9579;49.488;8.226;2024-02-16T01:27:00;12.90;99.90
18894;DHT22;9579;49.488;8.226;2024-02-16T01:29:48;13.60;99.90
18894;DHT22;9579;49.488;8.226;2024-02-16T01:32:38;12.20;99.90
18894;DHT22;9579;49.488;8.226;2024-02-16T01:35:26;14.20;99.90
18894;DHT22;9579;49.488;8.226;2024-02-16T01:38:14;13.00;99.90
18894;DHT22;9579;49.488;8.226;2024-02-16T01:41:03;13.00;99.90
18894;DHT22;9579;49.488;8.226;2024-02-16T01:43:53;13.00;99.90
18894;DHT22;9579;49.488;8.226;2024-02-16T01:46:45;13.50;99.90
18894;DHT22;9579;49.488;8.226;2024-02-16T01:49:36;12.80;99.90
18894;DHT22;9579;49.488;8.226;2024-02-16T01:52:28;13.20;99.90
18894;DHT22;9579;49.488;8.226;2024-02-16T01:55:31;14.30;99.90
18894;DHT22;9579;49.488;8.226;2024-02-16T01:58:19;13.80;99.90
18894;DHT22;9579;49.488;8.226;2024-02-16T02:01:08;14.10;99.90
18894;DHT22;9579;49.488;8.226;2024-02-16T02:03:56;12.20;99.90
18894;DHT22;9579;49.488;8.226;2024-02-16T02:06:49;14.00;99.90
18894;DHT22;9579;49.488;8.226;2024-02-16T02:09:39;13.90;99.90
18894;DHT22;9579;49.488;8.226;2024-02-16T02:12:32;12.90;99.90
18894;DHT22;9579;49.488;8.226;2024-02-16T02:15:32;12.70;99.90
18894;DHT22;9579;49.488;8.226;2024-02-16T02:18:24;12.70;99.90
18894;DHT22;9579;49.488;8.226;2024-02-16T02:21:15;12.80;99.90
18894;DHT22;9579;49.488;8.226;2024-02-16T02:24:09;14.30;99.90
18894;DHT22;9579;49.488;8.226;2024-02-16T02:26:58;12.80;99.90
18894;DHT22;9579;49.488;8.226;2024-02-16T02:29:45;14.10;99.90
18894;DHT22;9579;49.488;8.226;2024-02-16T02:32:35;12.80;99.90
18894;DHT22;9579;49.488;8.226;2024-02-16T02:35:25;11.00;99.90
18894;DHT22;9579;49.488;8.226;2024-02-16T02:38:13;12.70;99.90
18894;DHT22;9579;49.488;8.226;2024-02-16T02:41:02;13.80;99.90
18894;DHT22;9579;49.488;8.226;2024-02-16T02:43:51;12.80;99.90
18894;DHT22;9579;49.488;8.226;2024-02-16T02:46:38;12.80;99.90
18894;DHT22;9579;49.488;8.226;2024-02-16T02:49:27;12.40;99.90
18894;DHT22;9579;49.488;8.226;2024-02-16T02:52:16;12.70;99.90
18894;DHT22;9579;49.488;8.226;2024-02-16T02:55:04;12.80;99.90
18894;DHT22;9579;49.488;8.226;2024-02-16T02:57:54;11.80;99.90
18894;DHT22;9579;49.488;8.226;2024-02-16T03:00:44;13.50;99.90
18894;DHT22;9579;49.488;8.226;2024-02-16T03:03:32;12.70;99.90
18894;DHT22;9579;49.488;8.226;2024-02-16T03:06:21;13.70;99.90
18894;DHT22;9579;49.488;8.226;2024-02-16T03:09:11;13.40;99.90
18894;DHT22;9579;49.488;8.226;2024-02-16T03:11:58;12.70;99.90
18894;DHT22;9579;49.488;8.226;2024-02-16T03:14:49;13.40;99.90
18894;DHT22;9579;49.488;8.226;2024-02-16T03:17:37;12.60;99.90
18894;DHT22;9579;49.488;8.226;2024-02-16T03:20:26;12.70;99.90
18894;DHT22;9579;49.488;8.226;2024-02-16T03:23:17;11.00;99.90
18894;DHT22;9579;49.488;8.226;2024-02-16T03:26:14;12.60;99.90
18894;DHT22;9579;49.488;8.226;2024-02-16T03:29:06;12.50;99.90
18894;DHT22;9579;49.488;8.226;2024-02-16T03:31:56;13.70;99.90
18894;DHT22;9579;49.488;8.226;2024-02-16T03:34:44;12.50;99.90
18894;DHT22;9579;49.488;8.226;2024-02-16T03:37:34;12.60;99.90
18894;DHT22;9579;49.488;8.226;2024-02-16T03:40:25;11.30;99.90
18894;DHT22;9579;49.488;8.226;2024-02-16T03:43:14;13.20;99.90
18894;DHT22;9579;49.488;8.226;2024-02-16T03:46:02;13.30;99.90
18894;DHT22;9579;49.488;8.226;2024-02-16T03:48:57;12.40;99.90
18894;DHT22;9579;49.488;8.226;2024-02-16T03:51:46;12.40;99.90
18894;DHT22;9579;49.488;8.226;2024-02-16T03:54:33;12.30;99.90
18894;DHT22;9579;49.488;8.226;2024-02-16T03:57:22;12.50;99.90
18894;DHT22;9579;49.488;8.226;2024-02-16T04:00:10;12.50;99.90
18894;DHT22;9579;49.488;8.226;2024-02-16T04:02:58;11.50;99.90
18894;DHT22;9579;49.488;8.226;2024-02-16T04:05:47;12.50;99.90
18894;DHT22;9579;49.488;8.226;2024-02-16T04:08:35;13.80;99.90
18894;DHT22;9579;49.488;8.226;2024-02-16T04:11:22;12.50;99.90
18894;DHT22;9579;49.488;8.226;2024-02-16T04:14:10;12.50;99.90
18894;DHT22;9579;49.488;8.226;2024-02-16T04:16:59;13.40;99.90
18894;DHT22;9579;49.488;8.226;2024-02-16T04:19:46;14.30;99.90
18894;DHT22;9579;49.488;8.226;2024-02-16T04:22:35;10.50;99.90
18894;DHT22;9579;49.488;8.226;2024-02-16T04:25:23;12.90;99.90
18894;DHT22;9579;49.488;8.226;2024-02-16T04:28:11;10.60;99.90
18894;DHT22;9579;49.488;8.226;2024-02-16T04:30:59;12.10;99.90
18894;DHT22;9579;49.488;8.226;2024-02-16T04:33:47;12.50;99.90
18894;DHT22;9579;49.488;8.226;2024-02-16T04:36:35;12.90;99.90
18894;DHT22;9579;49.488;8.226;2024-02-16T04:39:23;13.40;99.90
18894;DHT22;9579;49.488;8.226;2024-02-16T04:42:11;13.50;99.90
18894;DHT22;9579;49.488;8.226;2024-02-16T04:44:58;13.70;99.90
18894;DHT22;9579;49.488;8.226;2024-02-16T04:47:48;12.50;99.90
18894;DHT22;9579;49.488;8.226;2024-02-16T04:50:37;11.10;99.90
18894;DHT22;9579;49.488;8.226;2024-02-16T04:53:32;11.30;99.90
18894;DHT22;9579;49.488;8.226;2024-02-16T04:56:22;11.10;99.90
18894;DHT22;9579;49.488;8.226;2024-02-16T04:59:11;12.00;99.90
18894;DHT22;9579;49.488;8.226;2024-02-16T05:01:58;12.30;99.90
18894;DHT22;9579;49.488;8.226;2024-02-16T05:04:47;13.40;99.90
18894;DHT22;9579;49.488;8.226;2024-02-16T05:07:34;13.20;99.90
18894;DHT22;9579;49.488;8.226;2024-02-16T05:10:22;13.30;99.90
18894;DHT22;9579;49.488;8.226;2024-02-16T05:13:11;12.10;99.90
18894;DHT22;9579;49.488;8.226;2024-02-16T05:16:00;11.60;99.90
18894;DHT22;9579;49.488;8.226;2024-02-16T05:18:47;13.40;99.90
18894;DHT22;9579;49.488;8.226;2024-02-16T05:21:35;11.00;99.90
18894;DHT22;9579;49.488;8.226;2024-02-16T05:24:24;12.60;99.90
18894;DHT22;9579;49.488;8.226;2024-02-16T05:27:11;11.10;99.90
18894;DHT22;9579;49.488;8.226;2024-02-16T05:30:00;13.10;99.90
18894;DHT22;9579;49.488;8.226;2024-02-16T05:32:48;12.40;99.90
18894;DHT22;9579;49.488;8.226;2024-02-16T05:35:37;13.10;99.90
18894;DHT22;9579;49.488;8.226;2024-02-16T05:38:25;13.00;99.90
18894;DHT22;9579;49.488;8.226;2024-02-16T05:41:26;13.10;99.90
18894;DHT22;9579;49.488;8.226;2024-02-16T05:44:14;13.60;99.90
18894;DHT22;9579;49.488;8.226;2024-02-16T05:47:04;12.30;99.90
18894;DHT22;9579;49.488;8.226;2024-02-16T05:49:51;13.70;99.90
18894;DHT22;9579;49.488;8.226;2024-02-16T05:52:39;13.10;99.90
18894;DHT22;9579;49.488;8.226;2024-02-16T05:55:26;12.30;99.90
18894;DHT22;9579;49.488;8.226;2024-02-16T05:58:14;11.60;99.90
18894;DHT22;9579;49.488;8.226;2024-02-16T06:01:01;11.90;99.90
18894;DHT22;9579;49.488;8.226;2024-02-16T06:03:50;12.10;99.90
18894;DHT22;9579;49.488;8.226;2024-02-16T06:06:37;11.40;99.90
18894;DHT22;9579;49.488;8.226;2024-02-16T06:09:26;13.10;99.90
18894;DHT22;9579;49.488;8.226;2024-02-16T06:12:19;12.70;99.90
18894;DHT22;9579;49.488;8.226;2024-02-16T06:15:07;11.90;99.90
18894;DHT22;9579;49.488;8.226;2024-02-16T06:17:56;10.90;99.90
18894;DHT22;9579;49.488;8.226;2024-02-16T06:20:45;11.80;99.90
18894;DHT22;9579;49.488;8.226;2024-02-16T06:23:32;10.00;99.90
18894;DHT22;9579;49.488;8.226;2024-02-16T06:26:20;12.00;99.90
18894;DHT22;9579;49.488;8.226;2024-02-16T06:29:13;11.70;99.90
18894;DHT22;9579;49.488;8.226;2024-02-16T06:32:05;12.50;99.90
18894;DHT22;9579;49.488;8.226;2024-02-16T06:34:53;12.90;99.90
18894;DHT22;9579;49.488;8.226;2024-02-16T06:37:42;13.20;99.90
18894;DHT22;9579;49.488;8.226;2024-02-16T06:40:31;10.30;99.90
18894;DHT22;9579;49.488;8.226;2024-02-16T06:43:18;11.70;99.90
18894;DHT22;9579;49.488;8.226;2024-02-16T06:46:06;12.00;99.90
18894;DHT22;9579;49.488;8.226;2024-02-16T06:48:54;12.60;99.90
18894;DHT22;9579;49.488;8.226;2024-02-16T06:51:42;12.90;99.90
18894;DHT22;9579;49.488;8.226;2024-02-16T06:54:32;13.40;99.90
18894;DHT22;9579;49.488;8.226;2024-02-16T06:57:19;12.60;99.90
18894;DHT22;9579;49.488;8.226;2024-02-16T07:00:08;12.50;99.90
18894;DHT22;9579;49.488;8.226;2024-02-16T07:02:56;11.50;99.90
18894;DHT22;9579;49.488;8.226;2024-02-16T07:05:43;11.50;99.90
18894;DHT22;9579;49.488;8.226;2024-02-16T07:08:30;11.10;99.90
18894;DHT22;9579;49.488;8.226;2024-02-16T07:11:18;11.70;99.90
18894;DHT22;9579;49.488;8.226;2024-02-16T07:14:06;13.30;99.90
18894;DHT22;9579;49.488;8.226;2024-02-16T07:16:55;12.90;99.90
18894;DHT22;9579;49.488;8.226;2024-02-16T07:24:53;11.90;99.90
18894;DHT22;9579;49.488;8.226;2024-02-16T07:27:43;12.00;99.90
18894;DHT22;9579;49.488;8.226;2024-02-16T07:30:34;11.60;99.90
18894;DHT22;9579;49.488;8.226;2024-02-16T07:33:24;10.10;99.90
18894;DHT22;9579;49.488;8.226;2024-02-16T07:36:23;11.60;99.90
18894;DHT22;9579;49.488;8.226;2024-02-16T07:39:13;12.60;99.90
18894;DHT22;9579;49.488;8.226;2024-02-16T07:42:00;12.00;99.90
18894;DHT22;9579;49.488;8.226;2024-02-16T07:44:49;12.00;99.90
18894;DHT22;9579;49.488;8.226;2024-02-16T07:47:37;12.00;99.90
18894;DHT22;9579;49.488;8.226;2024-02-16T07:50:25;12.20;99.90
18894;DHT22;9579;49.488;8.226;2024-02-16T07:53:12;13.50;99.90
18894;DHT22;9579;49.488;8.226;2024-02-16T07:55:59;12.00;99.90
18894;DHT22;9579;49.488;8.226;2024-02-16T07:58:46;13.90;99.90
18894;DHT22;9579;49.488;8.226;2024-02-16T08:01:35;13.50;99.90
18894;DHT22;9579;49.488;8.226;2024-02-16T08:04:26;13.50;99.90
18894;DHT22;9579;49.488;8.226;2024-02-16T08:07:13;14.00;99.90
18894;DHT22;9579;49.488;8.226;2024-02-16T08:10:00;12.80;99.90
18894;DHT22;9579;49.488;8.226;2024-02-16T08:12:48;12.90;99.90
18894;DHT22;9579;49.488;8.226;2024-02-16T08:15:36;13.00;99.90
18894;DHT22;9579;49.488;8.226;2024-02-16T08:18:25;13.10;99.90
18894;DHT22;9579;49.488;8.226;2024-02-16T08:21:12;13.00;99.90
18894;DHT22;9579;49.488;8.226;2024-02-16T08:23:59;14.90;99.90
18894;DHT22;9579;49.488;8.226;2024-02-16T08:26:46;14.30;99.90
18894;DHT22;9579;49.488;8.226;2024-02-16T08:29:33;13.90;99.90
18894;DHT22;9579;49.488;8.226;2024-02-16T08:32:20;13.50;99.90
18894;DHT22;9579;49.488;8.226;2024-02-16T08:35:09;13.70;99.90
18894;DHT22;9579;49.488;8.226;2024-02-16T08:37:56;13.70;99.90
18894;DHT22;9579;49.488;8.226;2024-02-16T08:40:43;15.50;99.90
18894;DHT22;9579;49.488;8.226;2024-02-16T08:43:30;14.00;99.90
18894;DHT22;9579;49.488;8.226;2024-02-16T08:46:17;14.40;99.90
18894;DHT22;9579;49.488;8.226;2024-02-16T08:49:04;15.40;99.90
18894;DHT22;9579;49.488;8.226;2024-02-16T08:51:53;14.90;99.90
18894;DHT22;9579;49.488;8.226;2024-02-16T08:54:40;14.20;99.90
18894;DHT22;9579;49.488;8.226;2024-02-16T08:57:29;14.40;99.90
18894;DHT22;9579;49.488;8.226;2024-02-16T09:00:18;14.80;99.90
18894;DHT22;9579;49.488;8.226;2024-02-16T09:03:05;14.30;99.90
18894;DHT22;9579;49.488;8.226;2024-02-16T09:05:54;14.80;99.90
18894;DHT22;9579;49.488;8.226;2024-02-16T09:08:42;15.40;99.90
18894;DHT22;9579;49.488;8.226;2024-02-16T09:11:29;15.80;99.90
18894;DHT22;9579;49.488;8.226;2024-02-16T09:14:16;15.60;99.90
18894;DHT22;9579;49.488;8.226;2024-02-16T09:17:04;16.10;99.90
18894;DHT22;9579;49.488;8.226;2024-02-16T09:19:51;15.70;99.90
18894;DHT22;9579;49.488;8.226;2024-02-16T09:22:40;15.20;99.90
18894;DHT22;9579;49.488;8.226;2024-02-16T09:25:28;15.10;99.90
18894;DHT22;9579;49.488;8.226;2024-02-16T09:28:15;16.10;99.90
18894;DHT22;9579;49.488;8.226;2024-02-16T09:31:04;15.50;99.90
18894;DHT22;9579;49.488;8.226;2024-02-16T09:33:51;15.30;99.90
18894;DHT22;9579;49.488;8.226;2024-02-16T09:36:39;16.90;99.90
18894;DHT22;9579;49.488;8.226;2024-02-16T09:39:26;15.40;99.90
18894;DHT22;9579;49.488;8.226;2024-02-16T09:42:15;15.40;99.90
18894;DHT22;9579;49.488;8.226;2024-02-16T09:45:04;15.60;99.90
18894;DHT22;9579;49.488;8.226;2024-02-16T09:47:52;15.70;99.90
18894;DHT22;9579;49.488;8.226;2024-02-16T09:50:41;15.90;99.90
18894;DHT22;9579;49.488;8.226;2024-02-16T09:53:28;15.90;99.90
18894;DHT22;9579;49.488;8.226;2024-02-16T09:56:15;15.90;99.90
18894;DHT22;9579;49.488;8.226;2024-02-16T09:59:04;16.00;99.90
18894;DHT22;9579;49.488;8.226;2024-02-16T10:01:59;16.10;99.90
18894;DHT22;9579;49.488;8.226;2024-02-16T10:04:46;15.90;99.90
18894;DHT22;9579;49.488;8.226;2024-02-16T10:07:33;15.90;99.90
18894;DHT22;9579;49.488;8.226;2024-02-16T10:10:21;15.90;99.90
18894;DHT22;9579;49.488;8.226;2024-02-16T10:13:08;16.80;99.90
18894;DHT22;9579;49.488;8.226;2024-02-16T10:16:09;16.80;99.90
18894;DHT22;9579;49.488;8.226;2024-02-16T10:19:04;15.90;99.90
18894;DHT22;9579;49.488;8.226;2024-02-16T10:21:51;16.10;99.90
18894;DHT22;9579;49.488;8.226;2024-02-16T10:24:38;16.40;99.90
18894;DHT22;9579;49.488;8.226;2024-02-16T10:27:25;16.20;99.90
18894;DHT22;9579;49.488;8.226;2024-02-16T10:30:12;16.70;99.90
18894;DHT22;9579;49.488;8.226;2024-02-16T10:33:02;16.50;99.90
18894;DHT22;9579;49.488;8.226;2024-02-16T10:35:50;16.60;99.90
18894;DHT22;9579;49.488;8.226;2024-02-16T10:38:39;16.90;99.90
18894;DHT22;9579;49.488;8.226;2024-02-16T10:41:28;17.20;99.90
18894;DHT22;9579;49.488;8.226;2024-02-16T10:44:15;17.50;99.90
18894;DHT22;9579;49.488;8.226;2024-02-16T10:47:03;17.90;99.90
18894;DHT22;9579;49.488;8.226;2024-02-16T10:49:52;18.00;99.90
18894;DHT22;9579;49.488;8.226;2024-02-16T10:52:41;18.30;99.90
18894;DHT22;9579;49.488;8.226;2024-02-16T10:55:30;18.70;99.90
18894;DHT22;9579;49.488;8.226;2024-02-16T10:58:17;19.00;99.90
18894;DHT22;9579;49.488;8.226;2024-02-16T11:01:09;19.30;99.90
18894;DHT22;9579;49.488;8.226;2024-02-16T11:04:00;19.50;99.90
18894;DHT22;9579;49.488;8.226;2024-02-16T11:06:52;19.60;99.90
18894;DHT22;9579;49.488;8.226;2024-02-16T11:09:42;19.70;99.90
18894;DHT22;9579;49.488;8.226;2024-02-16T11:12:33;19.80;99.90
18894;DHT22;9579;49.488;8.226;2024-02-16T11:15:27;20.00;99.90
18894;DHT22;9579;49.488;8.226;2024-02-16T11:18:14;20.10;99.90
18894;DHT22;9579;49.488;8.226;2024-02-16T11:21:01;20.30;99.90
18894;DHT22;9579;49.488;8.226;2024-02-16T11:23:50;20.40;99.90
18894;DHT22;9579;49.488;8.226;2024-02-16T11:26:42;20.30;99.90
18894;DHT22;9579;49.488;8.226;2024-02-16T11:29:32;20.20;99.90
18894;DHT22;9579;49.488;8.226;2024-02-16T11:32:19;20.00;99.90
18894;DHT22;9579;49.488;8.226;2024-02-16T11:35:07;19.60;99.90
18894;DHT22;9579;49.488;8.226;2024-02-16T11:37:55;19.50;99.90
18894;DHT22;9579;49.488;8.226;2024-02-16T11:40:53;19.30;99.90
18894;DHT22;9579;49.488;8.226;2024-02-16T11:43:40;19.10;99.90
18894;DHT22;9579;49.488;8.226;2024-02-16T11:46:27;18.90;99.90
18894;DHT22;9579;49.488;8.226;2024-02-16T11:49:14;18.80;99.90
18894;DHT22;9579;49.488;8.226;2024-02-16T11:52:04;20.10;99.90
18894;DHT22;9579;49.488;8.226;2024-02-16T11:54:51;18.80;99.90
18894;DHT22;9579;49.488;8.226;2024-02-16T11:57:40;18.90;99.90
18894;DHT22;9579;49.488;8.226;2024-02-16T12:00:27;18.80;99.90
18894;DHT22;9579;49.488;8.226;2024-02-16T12:03:18;18.90;99.90
18894;DHT22;9579;49.488;8.226;2024-02-16T12:06:06;19.00;99.90
18894;DHT22;9579;49.488;8.226;2024-02-16T12:08:54;19.20;99.90
18894;DHT22;9579;49.488;8.226;2024-02-16T12:11:41;19.20;99.90
18894;DHT22;9579;49.488;8.226;2024-02-16T12:14:29;19.10;99.90
18894;DHT22;9579;49.488;8.226;2024-02-16T12:17:16;18.90;99.90
18894;DHT22;9579;49.488;8.226;2024-02-16T12:20:11;19.40;99.90
18894;DHT22;9579;49.488;8.226;2024-02-16T12:22:58;18.80;99.90
18894;DHT22;9579;49.488;8.226;2024-02-16T12:25:48;19.00;99.90
18894;DHT22;9579;49.488;8.226;2024-02-16T12:28:35;20.20;99.90
18894;DHT22;9579;49.488;8.226;2024-02-16T12:31:24;19.10;99.90
18894;DHT22;9579;49.488;8.226;2024-02-16T12:34:12;19.20;99.90
18894;DHT22;9579;49.488;8.226;2024-02-16T12:36:59;19.40;99.90
18894;DHT22;9579;49.488;8.226;2024-02-16T12:39:46;19.60;99.90
18894;DHT22;9579;49.488;8.226;2024-02-16T12:42:33;19.70;99.90
18894;DHT22;9579;49.488;8.226;2024-02-16T12:45:20;19.70;99.90
18894;DHT22;9579;49.488;8.226;2024-02-16T12:48:09;19.80;99.90
18894;DHT22;9579;49.488;8.226;2024-02-16T12:50:58;19.80;99.90
18894;DHT22;9579;49.488;8.226;2024-02-16T12:53:45;19.70;99.90
18894;DHT22;9579;49.488;8.226;2024-02-16T12:56:32;19.70;99.90
18894;DHT22;9579;49.488;8.226;2024-02-16T12:59:19;19.70;99.90
18894;DHT22;9579;49.488;8.226;2024-02-16T13:02:06;19.60;99.90
18894;DHT22;9579;49.488;8.226;2024-02-16T13:04:55;19.70;99.90
18894;DHT22;9579;49.488;8.226;2024-02-16T13:07:42;19.40;99.90
18894;DHT22;9579;49.488;8.226;2024-02-16T13:10:29;19.20;99.90
18894;DHT22;9579;49.488;8.226;2024-02-16T13:13:16;19.40;99.90
18894;DHT22;9579;49.488;8.226;2024-02-16T13:16:04;18.80;99.90
18894;DHT22;9579;49.488;8.226;2024-02-16T13:18:51;18.40;99.90
18894;DHT22;9579;49.488;8.226;2024-02-16T13:21:39;18.80;99.90
18894;DHT22;9579;49.488;8.226;2024-02-16T13:24:26;18.20;99.90
18894;DHT22;9579;49.488;8.226;2024-02-16T13:27:13;18.20;99.90
18894;DHT22;9579;49.488;8.226;2024-02-16T13:30:01;18.20;99.90
18894;DHT22;9579;49.488;8.226;2024-02-16T13:32:48;18.10;99.90
18894;DHT22;9579;49.488;8.226;2024-02-16T13:35:35;18.00;99.90
18894;DHT22;9579;49.488;8.226;2024-02-16T13:38:24;19.10;99.90
18894;DHT22;9579;49.488;8.226;2024-02-16T13:41:11;17.80;99.90
18894;DHT22;9579;49.488;8.226;2024-02-16T13:43:58;19.00;99.90
18894;DHT22;9579;49.488;8.226;2024-02-16T13:46:46;17.80;99.90
18894;DHT22;9579;49.488;8.226;2024-02-16T13:49:33;17.80;99.90
18894;DHT22;9579;49.488;8.226;2024-02-16T13:52:20;17.80;99.90
18894;DHT22;9579;49.488;8.226;2024-02-16T13:55:11;17.60;99.90
18894;DHT22;9579;49.488;8.226;2024-02-16T13:57:58;17.70;99.90
18894;DHT22;9579;49.488;8.226;2024-02-16T14:00:45;17.60;99.90
18894;DHT22;9579;49.488;8.226;2024-02-16T14:03:33;17.10;99.90
18894;DHT22;9579;49.488;8.226;2024-02-16T14:06:22;17.40;99.90
18894;DHT22;9579;49.488;8.226;2024-02-16T14:09:12;18.00;99.90
18894;DHT22;9579;49.488;8.226;2024-02-16T14:12:04;17.50;99.90
18894;DHT22;9579;49.488;8.226;2024-02-16T14:14:51;17.40;99.90
18894;DHT22;9579;49.488;8.226;2024-02-16T14:17:38;17.40;99.90
18894;DHT22;9579;49.488;8.226;2024-02-16T14:20:25;17.40;99.90
18894;DHT22;9579;49.488;8.226;2024-02-16T14:23:12;17.30;99.90
18894;DHT22;9579;49.488;8.226;2024-02-16T14:26:00;17.20;99.90
18894;DHT22;9579;49.488;8.226;2024-02-16T14:28:48;17.20;99.90
18894;DHT22;9579;49.488;8.226;2024-02-16T14:31:35;17.20;99.90
18894;DHT22;9579;49.488;8.226;2024-02-16T14:34:22;17.10;99.90
18894;DHT22;9579;49.488;8.226;2024-02-16T14:37:09;17.60;99.90
18894;DHT22;9579;49.488;8.226;2024-02-16T14:39:56;17.00;99.90
18894;DHT22;9579;49.488;8.226;2024-02-16T14:42:45;17.10;99.90
18894;DHT22;9579;49.488;8.226;2024-02-16T14:45:33;17.10;99.90
18894;DHT22;9579;49.488;8.226;2024-02-16T14:48:21;16.90;99.90
18894;DHT22;9579;49.488;8.226;2024-02-16T14:51:08;16.80;99.90
18894;DHT22;9579;49.488;8.226;2024-02-16T14:53:55;16.70;99.90
18894;DHT22;9579;49.488;8.226;2024-02-16T14:56:42;16.80;99.90
18894;DHT22;9579;49.488;8.226;2024-02-16T14:59:29;16.70;99.90
18894;DHT22;9579;49.488;8.226;2024-02-16T15:02:18;16.70;99.90
18894;DHT22;9579;49.488;8.226;2024-02-16T15:05:07;16.70;99.90
18894;DHT22;9579;49.488;8.226;2024-02-16T15:07:54;16.50;99.90
18894;DHT22;9579;49.488;8.226;2024-02-16T15:10:41;16.50;99.90
18894;DHT22;9579;49.488;8.226;2024-02-16T15:13:29;16.50;99.90
18894;DHT22;9579;49.488;8.226;2024-02-16T15:16:16;16.50;99.90
18894;DHT22;9579;49.488;8.226;2024-02-16T15:19:05;16.60;99.90
18894;DHT22;9579;49.488;8.226;2024-02-16T15:21:52;16.50;99.90
18894;DHT22;9579;49.488;8.226;2024-02-16T15:24:39;16.40;99.90
18894;DHT22;9579;49.488;8.226;2024-02-16T15:27:26;18.00;99.90
18894;DHT22;9579;49.488;8.226;2024-02-16T15:30:14;16.40;99.90
18894;DHT22;9579;49.488;8.226;2024-02-16T15:33:01;16.40;99.90
18894;DHT22;9579;49.488;8.226;2024-02-16T15:35:49;16.50;99.90
18894;DHT22;9579;49.488;8.226;2024-02-16T15:38:36;16.30;99.90
18894;DHT22;9579;49.488;8.226;2024-02-16T15:41:23;16.30;99.90
18894;DHT22;9579;49.488;8.226;2024-02-16T15:44:10;16.30;99.90
18894;DHT22;9579;49.488;8.226;2024-02-16T15:46:57;16.30;99.90
18894;DHT22;9579;49.488;8.226;2024-02-16T15:49:44;16.20;99.90
18894;DHT22;9579;49.488;8.226;2024-02-16T15:52:32;16.30;99.90
18894;DHT22;9579;49.488;8.226;2024-02-16T15:55:20;16.30;99.90
18894;DHT22;9579;49.488;8.226;2024-02-16T15:58:06;16.30;99.90
18894;DHT22;9579;49.488;8.226;2024-02-16T16:00:53;16.30;99.90
18894;DHT22;9579;49.488;8.226;2024-02-16T16:03:40;16.20;99.90
18894;DHT22;9579;49.488;8.226;2024-02-16T16:06:29;16.20;99.90
18894;DHT22;9579;49.488;8.226;2024-02-16T16:09:17;16.20;99.90
18894;DHT22;9579;49.488;8.226;2024-02-16T16:12:05;16.10;99.90
18894;DHT22;9579;49.488;8.226;2024-02-16T16:14:52;16.10;99.90
18894;DHT22;9579;49.488;8.226;2024-02-16T16:17:39;16.10;99.90
18894;DHT22;9579;49.488;8.226;2024-02-16T16:20:26;16.10;99.90
18894;DHT22;9579;49.488;8.226;2024-02-16T16:23:13;16.10;99.90
18894;DHT22;9579;49.488;8.226;2024-02-16T16:26:05;16.10;99.90
18894;DHT22;9579;49.488;8.226;2024-02-16T16:28:52;16.20;99.90
18894;DHT22;9579;49.488;8.226;2024-02-16T16:31:39;16.20;99.90
18894;DHT22;9579;49.488;8.226;2024-02-16T16:34:26;16.20;99.90
18894;DHT22;9579;49.488;8.226;2024-02-16T16:37:14;16.20;99.90
18894;DHT22;9579;49.488;8.226;2024-02-16T16:40:02;16.00;99.90
18894;DHT22;9579;49.488;8.226;2024-02-16T16:42:50;16.00;99.90
18894;DHT22;9579;49.488;8.226;2024-02-16T16:45:38;15.90;99.90
18894;DHT22;9579;49.488;8.226;2024-02-16T16:48:25;15.90;99.90
18894;DHT22;9579;49.488;8.226;2024-02-16T16:51:12;15.90;99.90
18894;DHT22;9579;49.488;8.226;2024-02-16T16:53:59;16.20;99.90
18894;DHT22;9579;49.488;8.226;2024-02-16T16:56:46;15.70;99.90
18894;DHT22;9579;49.488;8.226;2024-02-16T16:59:35;15.80;99.90
18894;DHT22;9579;49.488;8.226;2024-02-16T17:02:21;15.70;99.90
18894;DHT22;9579;49.488;8.226;2024-02-16T17:05:10;17.20;99.90
18894;DHT22;9579;49.488;8.226;2024-02-16T17:07:57;15.60;99.90
18894;DHT22;9579;49.488;8.226;2024-02-16T17:10:44;15.60;99.90
18894;DHT22;9579;49.488;8.226;2024-02-16T17:13:32;15.60;99.90
18894;DHT22;9579;49.488;8.226;2024-02-16T17:16:20;15.60;99.90
18894;DHT22;9579;49.488;8.226;2024-02-16T17:19:07;15.60;99.90
18894;DHT22;9579;49.488;8.226;2024-02-16T17:21:54;15.50;99.90
18894;DHT22;9579;49.488;8.226;2024-02-16T17:24:41;15.50;99.90
18894;DHT22;9579;49.488;8.226;2024-02-16T17:27:28;15.50;99.90
18894;DHT22;9579;49.488;8.226;2024-02-16T17:30:18;15.50;99.90
18894;DHT22;9579;49.488;8.226;2024-02-16T17:33:07;15.50;99.90
18894;DHT22;9579;49.488;8.226;2024-02-16T17:35:54;15.40;99.90
18894;DHT22;9579;49.488;8.226;2024-02-16T17:38:41;15.30;99.90
18894;DHT22;9579;49.488;8.226;2024-02-16T17:41:28;15.20;99.90
18894;DHT22;9579;49.488;8.226;2024-02-16T17:44:16;16.20;99.90
18894;DHT22;9579;49.488;8.226;2024-02-16T17:47:03;15.30;99.90
18894;DHT22;9579;49.488;8.226;2024-02-16T17:49:51;15.30;99.90
18894;DHT22;9579;49.488;8.226;2024-02-16T17:52:38;15.20;99.90
18894;DHT22;9579;49.488;8.226;2024-02-16T17:55:25;15.20;99.90
18894;DHT22;9579;49.488;8.226;2024-02-16T17:58:12;16.30;99.90
18894;DHT22;9579;49.488;8.226;2024-02-16T18:00:59;15.10;99.90
18894;DHT22;9579;49.488;8.226;2024-02-16T18:03:46;16.00;99.90